Smithton, Missouri
Current Conditions -  °F | °C
As of 3:53 PM on Sunday 25 Jan 2015 (Local Time) from KDMO Reporting Station
Overcast Overcast  
Wind Chill: 26°   Ceiling: 1200
Heat Index: 37°   Visibility: 10mi
Dew Point: 32°   Wind: 23mph
Humidity: 82%   Direction: 350°N
Pressure: 29.89"   Gusts: 35mph
Location:  38.68°N, 93.09°W
Report Text: KDMO 252153Z AUTO 35020G30KT 10SM OVC012 03/00 A2989 RMK AO2 PK WND 34030/2147 RAB2055E08UPB04E07SNE2055 PRESRR SLP126 P0000 T00280000
Loading
Personal Weather Stations






























Interactive Weather Map New forecast layout! Learn more

10-Day Weather Forecast

Advertisements
Track Severe Weather on mobile